createdAt,value
2019-05-06T00:01:04.767Z,42.87
2019-05-06T00:03:34.335Z,43.67
2019-05-06T00:06:03.962Z,43.36
2019-05-06T00:08:34.511Z,44.03
2019-05-06T00:11:04.879Z,43.51
2019-05-06T00:13:34.344Z,44.09
2019-05-06T00:16:03.954Z,43.67
2019-05-06T00:18:34.266Z,42.94
2019-05-06T00:21:04.720Z,44.76
2019-05-06T00:23:38.382Z,42.15
2019-05-06T00:26:26.175Z,43.54
2019-05-06T00:29:00.724Z,44.46
2019-05-06T00:31:29.309Z,43.20
2019-05-06T00:33:57.926Z,43.54
2019-05-06T00:36:26.514Z,45.54
2019-05-06T00:38:58.155Z,44.86
2019-05-06T00:41:35.863Z,43.26
2019-05-06T00:44:04.021Z,43.72
2019-05-06T00:46:34.416Z,44.94
2019-05-06T00:49:03.994Z,44.49
2019-05-06T00:51:33.903Z,44.77
2019-05-06T00:54:09.004Z,45.66
2019-05-06T00:56:37.597Z,44.02
2019-05-06T00:59:06.202Z,44.55
2019-05-06T01:01:34.789Z,44.98
2019-05-06T01:04:04.994Z,44.31
2019-05-06T01:06:34.424Z,43.95
2019-05-06T01:09:04.569Z,44.24
2019-05-06T01:11:34.628Z,43.62
2019-05-06T01:14:10.572Z,42.96
2019-05-06T01:16:39.367Z,45.32
2019-05-06T01:19:07.969Z,44.19
2019-05-06T01:21:36.570Z,43.34
2019-05-06T01:24:05.427Z,44.33
2019-05-06T01:26:35.364Z,45.89
2019-05-06T01:29:04.237Z,45.66
2019-05-06T01:31:42.198Z,45.68
2019-05-06T01:34:04.299Z,46.09
2019-05-06T01:36:34.342Z,45.92
2019-05-06T01:39:09.808Z,46.12
2019-05-06T01:41:56.001Z,45.73
2019-05-06T01:44:24.635Z,45.64
2019-05-06T01:46:54.225Z,44.16
2019-05-06T01:49:24.572Z,45.35
2019-05-06T01:51:54.647Z,45.26
2019-05-06T01:54:24.860Z,45.67
2019-05-06T01:56:53.995Z,47.70
2019-05-06T01:59:24.652Z,46.28
2019-05-06T02:01:59.883Z,45.92
2019-05-06T02:04:24.458Z,45.29
2019-05-06T02:06:54.522Z,46.31
2019-05-06T02:09:24.654Z,44.58
2019-05-06T02:11:53.909Z,46.12
2019-05-06T02:14:24.500Z,44.59
2019-05-06T02:16:54.560Z,45.53
2019-05-06T02:19:24.141Z,46.42
2019-05-06T02:22:13.695Z,46.43
2019-05-06T02:25:01.325Z,45.88
2019-05-06T02:27:30.179Z,44.64
2019-05-06T02:30:05.996Z,46.73
2019-05-06T02:32:45.387Z,46.75
2019-05-06T02:35:19.682Z,46.40
2019-05-06T02:37:48.282Z,47.35
2019-05-06T02:40:24.779Z,47.34
2019-05-06T02:42:54.568Z,47.32
2019-05-06T02:45:24.066Z,46.55
2019-05-06T02:48:04.471Z,46.65
2019-05-06T02:50:53.821Z,47.44
2019-05-06T02:53:24.661Z,47.51
2019-05-06T02:55:53.487Z,47.90
2019-05-06T02:58:23.698Z,47.80
2019-05-06T03:00:53.879Z,47.18
2019-05-06T03:03:23.368Z,47.79
2019-05-06T03:05:53.233Z,50.06
2019-05-06T03:08:23.662Z,47.58
2019-05-06T03:10:53.607Z,47.08
2019-05-06T03:13:23.568Z,47.15
2019-05-06T03:15:54.051Z,48.51
2019-05-06T03:18:23.546Z,46.92
2019-05-06T03:21:10.098Z,47.24
2019-05-06T03:23:43.698Z,47.98
2019-05-06T03:26:13.686Z,46.90
2019-05-06T03:28:44.077Z,46.09
2019-05-06T03:31:16.387Z,48.23
2019-05-06T03:34:03.513Z,46.96
2019-05-06T03:36:24.119Z,48.02
2019-05-06T03:38:44.504Z,47.97
2019-05-06T03:41:14.079Z,49.47
2019-05-06T03:43:43.668Z,47.48
2019-05-06T03:46:34.627Z,48.15
2019-05-06T03:49:05.451Z,48.96
2019-05-06T03:51:34.575Z,48.43
2019-05-06T03:54:04.588Z,47.53
2019-05-06T03:56:33.992Z,47.71
2019-05-06T03:59:03.126Z,46.86
2019-05-06T04:01:33.665Z,47.83
2019-05-06T04:04:03.653Z,48.73
2019-05-06T04:06:33.474Z,49.14
2019-05-06T04:09:03.740Z,48.06
2019-05-06T04:11:35.884Z,47.80
2019-05-06T04:14:03.062Z,47.48
2019-05-06T04:16:43.755Z,46.87
2019-05-06T04:19:15.911Z,46.34
2019-05-06T04:21:56.974Z,47.55
2019-05-06T04:24:44.242Z,49.02
2019-05-06T04:27:33.554Z,48.73
2019-05-06T04:30:04.687Z,48.11
2019-05-06T04:32:34.041Z,49.61
2019-05-06T04:35:04.418Z,48.24
2019-05-06T04:37:34.007Z,48.15
2019-05-06T04:40:04.624Z,47.92
2019-05-06T04:42:34.403Z,46.19
2019-05-06T04:45:04.595Z,47.03
2019-05-06T04:47:33.549Z,47.59
2019-05-06T04:50:04.846Z,48.73
2019-05-06T04:52:34.230Z,47.92
2019-05-06T04:55:03.799Z,46.70
2019-05-06T04:57:33.570Z,46.96
2019-05-06T05:00:04.147Z,47.22
2019-05-06T05:02:33.866Z,47.35
2019-05-06T05:05:04.037Z,46.53
2019-05-06T05:07:33.556Z,46.36
2019-05-06T05:10:07.185Z,46.48
2019-05-06T05:12:44.781Z,47.62
2019-05-06T05:15:32.739Z,46.65
2019-05-06T05:18:31.864Z,44.54
2019-05-06T05:20:59.992Z,44.21
2019-05-06T05:23:28.687Z,45.82
2019-05-06T05:25:57.589Z,47.06
2019-05-06T05:28:26.195Z,46.01
2019-05-06T05:30:54.905Z,45.23
2019-05-06T05:33:23.884Z,44.86
2019-05-06T05:35:52.722Z,45.90
2019-05-06T05:38:22.728Z,45.93
2019-05-06T05:40:52.371Z,44.95
2019-05-06T05:43:35.755Z,44.54
2019-05-06T05:46:04.675Z,45.10
2019-05-06T05:48:58.173Z,45.40
2019-05-06T05:51:27.227Z,44.32
2019-05-06T05:53:55.934Z,45.08
2019-05-06T05:56:25.119Z,43.79
2019-05-06T05:58:53.867Z,46.04
2019-05-06T06:01:23.351Z,45.69
2019-05-06T06:03:52.780Z,45.35
2019-05-06T06:06:22.181Z,43.90
2019-05-06T06:08:52.438Z,44.43
2019-05-06T06:11:25.718Z,44.80
2019-05-06T06:13:54.547Z,44.43
2019-05-06T06:16:54.800Z,45.56
2019-05-06T06:19:36.535Z,45.80
2019-05-06T06:22:08.420Z,45.44
2019-05-06T06:24:38.096Z,44.07
2019-05-06T06:27:06.779Z,44.89
2019-05-06T06:29:35.450Z,43.63
2019-05-06T06:32:29.080Z,44.00
2019-05-06T06:35:14.636Z,44.86
2019-05-06T06:37:54.377Z,43.81
2019-05-06T06:40:25.170Z,44.60
2019-05-06T06:42:58.281Z,45.40
2019-05-06T06:45:26.873Z,46.16
2019-05-06T06:47:55.557Z,41.72
2019-05-06T06:50:24.704Z,42.62
2019-05-06T06:52:53.498Z,42.24
2019-05-06T06:55:22.643Z,43.71
2019-05-06T06:58:20.150Z,42.73
2019-05-06T07:01:06.329Z,41.37
2019-05-06T07:04:10.292Z,42.92
2019-05-06T07:06:43.475Z,43.86
2019-05-06T07:09:12.780Z,42.00
2019-05-06T07:11:42.805Z,42.62
2019-05-06T07:14:13.591Z,44.09
2019-05-06T07:16:43.001Z,41.65
2019-05-06T07:19:13.328Z,42.09
2019-05-06T07:21:52.124Z,40.96
2019-05-06T07:24:20.144Z,41.75
2019-05-06T07:27:03.720Z,40.51
2019-05-06T07:29:32.887Z,38.68
2019-05-06T07:32:02.674Z,38.56
2019-05-06T07:34:32.219Z,39.40
2019-05-06T07:37:03.259Z,40.36
2019-05-06T07:39:33.291Z,40.43
2019-05-06T07:42:03.400Z,39.60
2019-05-06T07:44:47.108Z,40.79
2019-05-06T07:47:26.256Z,39.71
2019-05-06T07:49:54.889Z,42.36
2019-05-06T07:52:23.515Z,40.16
2019-05-06T07:54:53.336Z,39.73
2019-05-06T07:57:22.176Z,39.81
2019-05-06T07:59:52.569Z,40.61
2019-05-06T08:02:22.865Z,41.29
2019-05-06T08:04:53.166Z,41.51
2019-05-06T08:07:22.371Z,42.70
2019-05-06T08:09:52.886Z,43.16
2019-05-06T08:12:22.304Z,41.64
2019-05-06T08:14:52.377Z,41.50
2019-05-06T08:17:26.550Z,41.35
2019-05-06T08:19:55.140Z,39.24
2019-05-06T08:22:45.014Z,39.58
2019-05-06T08:25:14.233Z,39.72
2019-05-06T08:27:42.824Z,39.51
2019-05-06T08:30:12.905Z,40.23
2019-05-06T08:32:42.482Z,39.25
2019-05-06T08:35:13.230Z,39.75
2019-05-06T08:37:42.652Z,38.53
2019-05-06T08:40:11.965Z,39.57
2019-05-06T08:42:42.608Z,39.61
2019-05-06T08:45:12.875Z,40.79
2019-05-06T08:47:42.554Z,39.05
2019-05-06T08:50:17.941Z,39.07
2019-05-06T08:53:13.892Z,32.90
2019-05-06T08:55:42.912Z,32.90
2019-05-06T08:58:13.955Z,31.72
2019-05-06T09:00:48.689Z,33.12
2019-05-06T09:03:17.307Z,33.38
2019-05-06T09:05:53.267Z,33.34
2019-05-06T09:08:23.857Z,31.66
2019-05-06T09:10:53.110Z,31.69
2019-05-06T09:13:23.179Z,32.42
2019-05-06T09:15:52.551Z,34.41
2019-05-06T09:18:23.870Z,35.55
2019-05-06T09:20:53.664Z,41.24
2019-05-06T09:23:22.704Z,41.24
2019-05-06T09:25:53.086Z,40.53
2019-05-06T09:28:37.071Z,39.51
2019-05-06T09:31:16.061Z,40.56
2019-05-06T09:33:52.991Z,39.38
2019-05-06T09:36:22.863Z,37.98
2019-05-06T09:38:53.031Z,41.68
2019-05-06T09:41:23.100Z,41.96
2019-05-06T09:43:52.850Z,40.73
2019-05-06T09:46:23.066Z,39.41
2019-05-06T09:49:05.576Z,39.82
2019-05-06T09:51:34.203Z,38.57
2019-05-06T09:54:27.234Z,38.40
2019-05-06T09:56:59.488Z,36.01
2019-05-06T09:59:28.092Z,35.36
2019-05-06T10:01:56.694Z,31.98
2019-05-06T10:04:25.308Z,29.28
2019-05-06T10:06:57.383Z,27.81
2019-05-06T10:09:25.036Z,26.62
2019-05-06T10:11:53.790Z,26.87
2019-05-06T10:14:23.500Z,25.80
2019-05-06T10:16:52.490Z,25.54
2019-05-06T10:19:22.627Z,24.41
2019-05-06T10:21:53.114Z,25.61
2019-05-06T10:24:21.843Z,24.41
2019-05-06T10:26:55.905Z,26.32
2019-05-06T10:29:33.606Z,28.11
2019-05-06T10:32:12.126Z,29.07
2019-05-06T10:34:43.297Z,28.71
2019-05-06T10:37:24.268Z,28.08
2019-05-06T10:40:03.135Z,29.95
2019-05-06T10:42:37.565Z,30.43
2019-05-06T10:45:16.184Z,30.08
2019-05-06T10:47:45.059Z,31.70
2019-05-06T10:50:13.744Z,31.85
2019-05-06T10:53:02.542Z,33.04
2019-05-06T10:55:32.524Z,33.60
2019-05-06T10:58:02.685Z,33.11
2019-05-06T11:00:33.184Z,32.86
2019-05-06T11:03:22.631Z,31.47
2019-05-06T11:05:53.406Z,32.09
2019-05-06T11:08:22.286Z,31.82
2019-05-06T11:10:53.545Z,33.19
2019-05-06T11:13:24.191Z,32.01
2019-05-06T11:15:52.773Z,31.24
2019-05-06T11:18:23.364Z,28.62
2019-05-06T11:20:53.050Z,28.32
2019-05-06T11:23:22.551Z,28.79
2019-05-06T11:25:52.555Z,28.52
2019-05-06T11:28:42.825Z,30.08
2019-05-06T11:31:43.264Z,28.46
2019-05-06T11:34:33.991Z,29.37
2019-05-06T11:37:19.004Z,29.54
2019-05-06T11:39:47.791Z,30.19
2019-05-06T11:42:27.615Z,30.10
2019-05-06T11:44:47.078Z,30.93
2019-05-06T11:47:15.726Z,30.27
2019-05-06T11:49:44.375Z,31.26
2019-05-06T11:52:13.153Z,30.33
2019-05-06T11:54:42.315Z,30.89
2019-05-06T11:57:12.669Z,31.28
2019-05-06T11:59:43.329Z,29.73
2019-05-06T12:02:14.385Z,29.94
2019-05-06T12:04:43.225Z,28.51
2019-05-06T12:07:15.614Z,30.24
2019-05-06T12:09:42.170Z,29.55
2019-05-06T12:12:12.806Z,32.98
2019-05-06T12:14:42.966Z,34.52
2019-05-06T12:17:12.754Z,33.19
2019-05-06T12:19:43.213Z,33.32
2019-05-06T12:22:12.622Z,33.47
2019-05-06T12:24:43.097Z,34.12
2019-05-06T12:27:13.480Z,32.41
2019-05-06T12:29:42.818Z,34.76
2019-05-06T12:32:29.977Z,32.22
2019-05-06T12:34:58.580Z,31.58
2019-05-06T12:37:27.367Z,31.23
2019-05-06T12:39:58.429Z,29.16
2019-05-06T12:42:35.881Z,28.75
2019-05-06T12:45:18.724Z,27.28
2019-05-06T12:48:09.467Z,26.63
2019-05-06T12:50:38.337Z,29.44
2019-05-06T12:53:06.974Z,27.76
2019-05-06T12:55:35.577Z,28.84
2019-05-06T12:58:04.188Z,28.56
2019-05-06T13:00:33.762Z,29.19
2019-05-06T13:03:02.717Z,31.33
2019-05-06T13:05:31.951Z,31.67
2019-05-06T13:08:05.611Z,30.70
2019-05-06T13:10:33.378Z,28.79
2019-05-06T13:13:04.984Z,29.51
2019-05-06T13:15:33.871Z,29.94
2019-05-06T13:18:06.982Z,29.29
2019-05-06T13:20:34.288Z,29.32
2019-05-06T13:23:15.441Z,30.26
2019-05-06T13:25:42.251Z,29.67
2019-05-06T13:28:12.915Z,29.06
2019-05-06T13:30:43.404Z,29.87
2019-05-06T13:33:27.263Z,28.84
2019-05-06T13:35:55.851Z,27.48
2019-05-06T13:38:24.690Z,27.84
2019-05-06T13:40:56.660Z,28.76
2019-05-06T13:43:43.380Z,26.90
2019-05-06T13:46:18.274Z,26.37
2019-05-06T13:49:13.301Z,27.68
2019-05-06T13:51:45.185Z,28.82
2019-05-06T13:54:16.116Z,27.47
2019-05-06T13:56:44.377Z,28.32
2019-05-06T13:59:13.223Z,28.87
2019-05-06T14:01:49.378Z,28.42
2019-05-06T14:04:18.239Z,30.06
2019-05-06T14:06:46.897Z,29.01
2019-05-06T14:09:28.642Z,27.64
2019-05-06T14:11:45.839Z,28.51
2019-05-06T14:14:14.445Z,27.11
2019-05-06T14:16:43.072Z,29.05
2019-05-06T14:19:13.227Z,28.26
2019-05-06T14:21:43.179Z,29.08
2019-05-06T14:24:13.340Z,29.04
2019-05-06T14:26:47.777Z,29.94
2019-05-06T14:29:25.508Z,31.02
2019-05-06T14:32:03.185Z,29.67
2019-05-06T14:34:32.540Z,31.56
2019-05-06T14:37:01.585Z,31.42
2019-05-06T14:39:48.403Z,33.80
2019-05-06T14:42:04.332Z,34.53
2019-05-06T14:44:33.355Z,35.27
2019-05-06T14:47:16.615Z,37.59
2019-05-06T14:49:45.677Z,37.58
2019-05-06T14:52:14.298Z,36.38
2019-05-06T14:54:50.016Z,36.38
2019-05-06T14:57:19.491Z,36.98
2019-05-06T14:59:51.105Z,35.29
2019-05-06T15:02:25.398Z,36.78
2019-05-06T15:04:53.346Z,37.83
2019-05-06T15:07:22.082Z,37.01
2019-05-06T15:10:07.856Z,37.10
2019-05-06T15:12:22.922Z,39.39
2019-05-06T15:14:52.618Z,40.70
2019-05-06T15:17:23.173Z,39.16
2019-05-06T15:19:52.867Z,42.34
2019-05-06T15:22:22.515Z,42.34
2019-05-06T15:24:53.603Z,41.15
2019-05-06T15:27:22.750Z,39.20
2019-05-06T15:29:54.248Z,41.14
2019-05-06T15:32:30.727Z,42.44
2019-05-06T15:35:12.823Z,44.19
2019-05-06T15:37:48.541Z,43.31
2019-05-06T15:40:31.183Z,40.97
2019-05-06T15:42:47.537Z,41.93
2019-05-06T15:45:16.228Z,41.93
2019-05-06T15:47:45.298Z,39.67
2019-05-06T15:50:13.985Z,42.38
2019-05-06T15:52:43.655Z,41.95
2019-05-06T15:55:12.612Z,41.68
2019-05-06T15:57:43.484Z,41.68
2019-05-06T16:00:15.052Z,39.69
2019-05-06T16:02:43.890Z,40.03
2019-05-06T16:05:19.418Z,38.80
2019-05-06T16:07:43.461Z,39.04
2019-05-06T16:10:13.258Z,37.84
2019-05-06T16:12:45.255Z,37.05
2019-05-06T16:15:13.990Z,37.05
2019-05-06T16:17:42.832Z,38.13
2019-05-06T16:20:12.951Z,39.25
2019-05-06T16:22:44.540Z,39.03
2019-05-06T16:25:15.233Z,37.90
2019-05-06T16:27:45.429Z,37.90
2019-05-06T16:30:15.649Z,39.58
2019-05-06T16:32:44.348Z,38.33
2019-05-06T16:35:14.323Z,38.33
2019-05-06T16:37:42.971Z,36.42
2019-05-06T16:40:12.414Z,36.42
2019-05-06T16:42:45.405Z,35.64
2019-05-06T16:45:12.658Z,36.73
2019-05-06T16:47:44.499Z,36.73
2019-05-06T16:50:13.544Z,36.68
2019-05-06T16:52:45.077Z,37.72
2019-05-06T16:55:16.567Z,37.62
2019-05-06T16:57:52.343Z,39.04
2019-05-06T17:00:23.120Z,39.04
2019-05-06T17:03:00.166Z,40.02
2019-05-06T17:05:46.113Z,39.96
2019-05-06T17:08:14.729Z,39.58
2019-05-06T17:10:44.703Z,39.80
2019-05-06T17:13:13.716Z,38.50
2019-05-06T17:15:42.375Z,39.87
2019-05-06T17:18:12.244Z,39.87
2019-05-06T17:20:42.703Z,38.79
2019-05-06T17:23:13.092Z,38.66
2019-05-06T17:25:42.349Z,38.66
2019-05-06T17:28:28.792Z,38.49
2019-05-06T17:31:25.505Z,38.72
2019-05-06T17:33:55.580Z,38.72
2019-05-06T17:36:26.278Z,39.54
2019-05-06T17:38:55.422Z,38.75
2019-05-06T17:41:27.887Z,38.75
2019-05-06T17:43:54.579Z,39.01
2019-05-06T17:46:25.045Z,40.01
2019-05-06T17:49:03.188Z,39.94
2019-05-06T17:51:42.568Z,39.48
2019-05-06T17:54:12.296Z,42.03
2019-05-06T17:56:41.887Z,42.43
2019-05-06T17:59:10.634Z,42.81
2019-05-06T18:01:42.916Z,41.33
2019-05-06T18:04:12.544Z,41.30
2019-05-06T18:06:42.366Z,40.86
2019-05-06T18:09:12.687Z,41.81
2019-05-06T18:11:42.461Z,41.60
2019-05-06T18:14:12.363Z,41.66
2019-05-06T18:16:42.733Z,41.30
2019-05-06T18:19:12.644Z,40.06
2019-05-06T18:21:41.362Z,40.31
2019-05-06T18:24:12.659Z,42.27
2019-05-06T18:26:42.111Z,42.71
2019-05-06T18:29:12.556Z,41.72
2019-05-06T18:31:42.679Z,43.19
2019-05-06T18:34:12.951Z,43.54
2019-05-06T18:36:42.938Z,44.36
2019-05-06T18:39:12.572Z,44.07
2019-05-06T18:41:42.110Z,42.15
2019-05-06T18:44:11.995Z,43.14
2019-05-06T18:46:42.061Z,42.74
2019-05-06T18:49:12.976Z,42.66
2019-05-06T18:51:42.636Z,44.66
2019-05-06T18:54:12.443Z,43.91
2019-05-06T18:56:43.010Z,43.93
2019-05-06T18:59:12.287Z,44.15
2019-05-06T19:01:43.163Z,45.77
2019-05-06T19:04:16.502Z,50.93
2019-05-06T19:06:45.162Z,50.92
2019-05-06T19:09:25.723Z,49.75
2019-05-06T19:11:54.697Z,48.20
2019-05-06T19:14:23.608Z,48.88
2019-05-06T19:16:55.158Z,49.62
2019-05-06T19:19:23.379Z,48.70
2019-05-06T19:21:52.500Z,47.17
2019-05-06T19:24:22.639Z,47.97
2019-05-06T19:26:52.714Z,49.45
2019-05-06T19:29:23.147Z,49.26
2019-05-06T19:31:52.254Z,50.01
2019-05-06T19:34:23.391Z,49.96
2019-05-06T19:36:52.872Z,48.68
2019-05-06T19:39:23.090Z,48.06
2019-05-06T19:41:52.100Z,48.27
2019-05-06T19:44:22.110Z,47.92
2019-05-06T19:46:53.103Z,46.19
2019-05-06T19:49:21.697Z,46.98
2019-05-06T19:51:52.344Z,46.54
2019-05-06T19:54:22.496Z,46.48
2019-05-06T19:56:52.741Z,47.47
2019-05-06T19:59:21.500Z,46.72
2019-05-06T20:01:52.316Z,47.47
2019-05-06T20:04:22.745Z,46.67
2019-05-06T20:07:08.836Z,46.52
2019-05-06T20:09:53.944Z,46.13
2019-05-06T20:13:04.483Z,45.99
2019-05-06T20:15:52.480Z,47.94
2019-05-06T20:18:21.408Z,45.72
2019-05-06T20:20:50.034Z,47.22
2019-05-06T20:23:19.100Z,45.60
2019-05-06T20:25:47.696Z,45.94
2019-05-06T20:28:16.461Z,46.41
2019-05-06T20:30:45.191Z,46.57
2019-05-06T20:33:13.814Z,46.09
2019-05-06T20:35:43.207Z,47.58
2019-05-06T20:38:12.447Z,45.94
2019-05-06T20:40:43.106Z,46.72
2019-05-06T20:43:19.588Z,47.57
2019-05-06T20:45:42.978Z,46.26
2019-05-06T20:48:12.865Z,46.70
2019-05-06T20:50:42.882Z,49.12
2019-05-06T20:53:12.265Z,47.76
2019-05-06T20:55:43.102Z,47.66
2019-05-06T20:58:12.208Z,47.89
2019-05-06T21:00:42.912Z,50.46
2019-05-06T21:03:12.186Z,47.54
2019-05-06T21:05:43.183Z,47.00
2019-05-06T21:08:12.933Z,46.99
2019-05-06T21:10:42.615Z,46.29
2019-05-06T21:13:13.325Z,46.49
2019-05-06T21:15:43.185Z,48.57
2019-05-06T21:18:12.276Z,48.72
2019-05-06T21:20:43.340Z,47.95
2019-05-06T21:23:11.315Z,46.53
2019-05-06T21:25:40.256Z,46.20
2019-05-06T21:28:08.915Z,46.78
2019-05-06T21:30:37.641Z,47.37
2019-05-06T21:33:06.380Z,47.72
2019-05-06T21:35:35.069Z,46.63
2019-05-06T21:38:03.906Z,48.97
2019-05-06T21:40:32.569Z,49.04
2019-05-06T21:43:02.080Z,49.66
2019-05-06T21:45:33.083Z,50.29
2019-05-06T21:48:02.751Z,50.52
2019-05-06T21:50:33.072Z,48.08
2019-05-06T21:53:02.728Z,48.26
2019-05-06T21:55:32.326Z,47.11
2019-05-06T21:58:02.133Z,51.27
2019-05-06T22:00:43.355Z,50.25
2019-05-06T22:03:13.376Z,51.56
2019-05-06T22:05:42.725Z,47.83
2019-05-06T22:10:52.895Z,47.03
2019-05-06T22:13:21.955Z,50.17
2019-05-06T22:15:50.653Z,50.21
2019-05-06T22:18:19.287Z,48.82
2019-05-06T22:21:12.083Z,50.14
2019-05-06T22:23:52.215Z,50.60
2019-05-06T22:26:23.184Z,51.73
2019-05-06T22:28:52.502Z,52.61
2019-05-06T22:34:01.337Z,49.72
2019-05-06T22:36:32.109Z,49.53
2019-05-06T22:39:02.371Z,47.85
2019-05-06T22:41:32.572Z,48.10
2019-05-06T22:44:12.650Z,50.33
2019-05-06T22:46:32.949Z,48.28
2019-05-06T22:49:02.451Z,46.92
2019-05-06T22:51:32.297Z,45.31
2019-05-06T22:54:02.670Z,46.17
2019-05-06T22:56:32.490Z,46.38
2019-05-06T22:59:03.301Z,49.92
2019-05-06T23:01:43.538Z,49.99
2019-05-06T23:04:13.300Z,49.96
2019-05-06T23:06:41.920Z,51.48
2019-05-06T23:09:10.874Z,50.75
2019-05-06T23:11:39.493Z,48.36
2019-05-06T23:14:08.178Z,47.23
2019-05-06T23:16:36.934Z,47.52
2019-05-06T23:19:05.555Z,47.57
2019-05-06T23:21:34.269Z,45.96
2019-05-06T23:24:02.923Z,45.89
2019-05-06T23:26:31.497Z,48.65
2019-05-06T23:29:02.425Z,50.08
2019-05-06T23:31:33.003Z,51.42
2019-05-06T23:34:02.325Z,51.19
2019-05-06T23:36:52.850Z,50.00
2019-05-06T23:39:59.962Z,49.42
2019-05-06T23:43:04.907Z,51.55
2019-05-06T23:46:12.118Z,51.10
2019-05-06T23:49:17.153Z,49.47
2019-05-06T23:52:22.741Z,48.72
2019-05-06T23:55:27.568Z,49.72
2019-05-06T23:57:55.065Z,47.93
